PWSweather.com
Personal Weather Stations
Station Observations
ALOHA852
Aloha, OR

Aloha, OR

Lat: 45.476667, Lon: -122.894722

Elevation: 278

Station Type: Ambient Weather

Latest ConditionsUpdated 12:55:00 AM PDT Thursday, Oct 23, 2014
Currently Today's Max Today's Min Today's Average
Temperature 54.7°F12.6°C 54.9°F12.7°C 52.9°F11.6°C 54.0°F12.2°C
Dew Point 54.4°F12.4°C 54.6°F12.6°C 52.6°F11.4°C 53.7°F12.1°C
Winds 4.9 mph N7.9 kmh N 5.9 mph NNE9.5 kmh NNE - 3.5 mph 5.6 kmh
Wind Gusts 6.9 mph11.1 kmh 8.3 mph13.4 kmh - -
Humidity 99% 99% 99% 99%
Pressure 29.37 in994.6 mb 29.37 in994.6 mb 29.36 in994.2 mb -
Hour Temp Dew Point Humidity Winds Wind Gusts Pressure Precip Precip Rate Daily Precip Total
12:55 AM 54.7°F12.6°C 54.4°F12.4°C 99% 4.9 mph N7.9 kmh N 6.9 mph11.1 kmh 29.37 in994.6 mb 0.00 in0.0 mm 0.00 in/hr0.0 mm/hr 0.00 in0.0 mm
12:54 AM 54.7°F12.6°C 54.4°F12.4°C 99% 4.8 mph N7.7 kmh N 6.9 mph11.1 kmh 29.37 in994.6 mb 0.00 in0.0 mm 0.00 in/hr0.0 mm/hr 0.00 in0.0 mm
12:53 AM 54.9°F12.7°C 54.6°F12.6°C 99% 4.7 mph N7.6 kmh N 6.9 mph11.1 kmh 29.37 in994.6 mb 0.00 in0.0 mm 0.00 in/hr0.0 mm/hr 0.00 in0.0 mm
12:52 AM 54.7°F12.6°C 54.4°F12.4°C 99% 5.0 mph NNE8.0 kmh NNE 6.9 mph11.1 kmh 29.37 in994.6 mb 0.00 in0.0 mm 0.00 in/hr0.0 mm/hr 0.00 in0.0 mm
12:51 AM 54.7°F12.6°C 54.4°F12.4°C 99% 4.8 mph NNE7.7 kmh NNE 6.9 mph11.1 kmh 29.37 in994.6 mb 0.00 in0.0 mm 0.00 in/hr0.0 mm/hr 0.00 in0.0 mm
12:50 AM 54.9°F12.7°C 54.6°F12.6°C 99% 5.1 mph NNE8.2 kmh NNE 8.3 mph13.4 kmh 29.37 in994.6 mb 0.00 in0.0 mm 0.00 in/hr0.0 mm/hr 0.00 in0.0 mm
12:49 AM 54.7°F12.6°C 54.4°F12.4°C 99% 5.2 mph NNE8.4 kmh NNE 8.3 mph13.4 kmh 29.37 in994.6 mb 0.00 in0.0 mm 0.00 in/hr0.0 mm/hr 0.00 in0.0 mm
12:48 AM 54.7°F12.6°C 54.4°F12.4°C 99% 5.6 mph NNE9.0 kmh NNE 8.3 mph13.4 kmh 29.37 in994.6 mb 0.00 in0.0 mm 0.00 in/hr0.0 mm/hr 0.00 in0.0 mm
12:47 AM 54.7°F12.6°C 54.4°F12.4°C 99% 5.8 mph NNE9.3 kmh NNE 8.3 mph13.4 kmh 29.37 in994.6 mb 0.00 in0.0 mm 0.00 in/hr0.0 mm/hr 0.00 in0.0 mm
12:46 AM 54.5°F12.5°C 54.2°F12.3°C 99% 5.7 mph NNE9.2 kmh NNE 8.3 mph13.4 kmh 29.37 in994.6 mb 0.00 in0.0 mm 0.00 in/hr0.0 mm/hr 0.00 in0.0 mm
12:45 AM 54.9°F12.7°C 54.6°F12.6°C 99% 5.6 mph NNE9.0 kmh NNE 8.3 mph13.4 kmh 29.37 in994.6 mb 0.00 in0.0 mm 0.00 in/hr0.0 mm/hr 0.00 in0.0 mm
12:44 AM 54.9°F12.7°C 54.6°F12.6°C 99% 5.7 mph NNE9.2 kmh NNE 8.3 mph13.4 kmh 29.37 in994.6 mb 0.00 in0.0 mm 0.00 in/hr0.0 mm/hr 0.00 in0.0 mm
12:43 AM 54.7°F12.6°C 54.4°F12.4°C 99% 5.9 mph NNE9.5 kmh NNE 8.3 mph13.4 kmh 29.37 in994.6 mb 0.00 in0.0 mm 0.00 in/hr0.0 mm/hr 0.00 in0.0 mm
12:42 AM 54.5°F12.5°C 54.2°F12.3°C 99% 5.6 mph N9.0 kmh N 8.3 mph13.4 kmh 29.37 in994.6 mb 0.00 in0.0 mm 0.00 in/hr0.0 mm/hr 0.00 in0.0 mm
12:41 AM 54.5°F12.5°C 54.2°F12.3°C 99% 5.6 mph N9.0 kmh N 8.3 mph13.4 kmh 29.37 in994.6 mb 0.00 in0.0 mm 0.00 in/hr0.0 mm/hr 0.00 in0.0 mm
12:40 AM 54.5°F12.5°C 54.2°F12.3°C 99% 5.3 mph N8.5 kmh N 8.3 mph13.4 kmh 29.37 in994.6 mb 0.00 in0.0 mm 0.00 in/hr0.0 mm/hr 0.00 in0.0 mm
12:39 AM 54.7°F12.6°C 54.4°F12.4°C 99% 5.1 mph N8.2 kmh N 7.6 mph12.2 kmh 29.36 in994.2 mb 0.00 in0.0 mm 0.00 in/hr0.0 mm/hr 0.00 in0.0 mm
12:38 AM 54.3°F12.4°C 54.1°F12.3°C 99% 5.0 mph N8.0 kmh N 7.6 mph12.2 kmh 29.36 in994.2 mb 0.00 in0.0 mm 0.00 in/hr0.0 mm/hr 0.00 in0.0 mm
12:37 AM 54.7°F12.6°C 54.4°F12.4°C 99% 4.7 mph N7.6 kmh N 7.6 mph12.2 kmh 29.36 in994.2 mb 0.00 in0.0 mm 0.00 in/hr0.0 mm/hr 0.00 in0.0 mm
12:36 AM 54.7°F12.6°C 54.4°F12.4°C 99% 4.6 mph N7.4 kmh N 7.6 mph12.2 kmh 29.36 in994.2 mb 0.00 in0.0 mm 0.00 in/hr0.0 mm/hr 0.00 in0.0 mm
12:35 AM 54.3°F12.4°C 54.1°F12.3°C 99% 4.5 mph N7.2 kmh N 7.6 mph12.2 kmh 29.37 in994.6 mb 0.00 in0.0 mm 0.00 in/hr0.0 mm/hr 0.00 in0.0 mm
12:34 AM 54.3°F12.4°C 54.1°F12.3°C 99% 4.4 mph N7.1 kmh N 7.6 mph12.2 kmh 29.36 in994.2 mb 0.00 in0.0 mm 0.00 in/hr0.0 mm/hr 0.00 in0.0 mm
12:33 AM 54.1°F12.3°C 53.9°F12.2°C 99% 4.2 mph N6.8 kmh N 6.0 mph9.7 kmh 29.36 in994.2 mb 0.00 in0.0 mm 0.00 in/hr0.0 mm/hr 0.00 in0.0 mm
12:32 AM 54.1°F12.3°C 53.9°F12.2°C 99% 4.0 mph N6.4 kmh N 6.0 mph9.7 kmh 29.36 in994.2 mb 0.00 in0.0 mm 0.00 in/hr0.0 mm/hr 0.00 in0.0 mm
12:31 AM 54.1°F12.3°C 53.9°F12.2°C 99% 3.8 mph N6.1 kmh N 6.0 mph9.7 kmh 29.36 in994.2 mb 0.00 in0.0 mm 0.00 in/hr0.0 mm/hr 0.00 in0.0 mm
12:30 AM 54.1°F12.3°C 53.9°F12.2°C 99% 3.6 mph N5.8 kmh N 6.0 mph9.7 kmh 29.36 in994.2 mb 0.00 in0.0 mm 0.00 in/hr0.0 mm/hr 0.00 in0.0 mm
12:29 AM 54.1°F12.3°C 53.9°F12.2°C 99% 3.5 mph N5.6 kmh N 6.0 mph9.7 kmh 29.36 in994.2 mb 0.00 in0.0 mm 0.00 in/hr0.0 mm/hr 0.00 in0.0 mm
12:28 AM 54.1°F12.3°C 53.9°F12.2°C 99% 3.3 mph N5.3 kmh N 6.0 mph9.7 kmh 29.36 in994.2 mb 0.00 in0.0 mm 0.00 in/hr0.0 mm/hr 0.00 in0.0 mm
12:27 AM 54.0°F12.2°C 53.7°F12.1°C 99% 3.3 mph N5.3 kmh N 4.5 mph7.2 kmh 29.36 in994.2 mb 0.00 in0.0 mm 0.00 in/hr0.0 mm/hr 0.00 in0.0 mm
12:26 AM 53.8°F12.1°C 53.5°F11.9°C 99% 3.4 mph N5.5 kmh N 4.5 mph7.2 kmh 29.36 in994.2 mb 0.00 in0.0 mm 0.00 in/hr0.0 mm/hr 0.00 in0.0 mm
12:25 AM 53.8°F12.1°C 53.5°F11.9°C 99% 3.4 mph N5.5 kmh N 4.5 mph7.2 kmh 29.36 in994.2 mb 0.00 in0.0 mm 0.00 in/hr0.0 mm/hr 0.00 in0.0 mm
12:24 AM 54.0°F12.2°C 53.7°F12.1°C 99% 3.3 mph N5.3 kmh N 4.5 mph7.2 kmh 29.36 in994.2 mb 0.00 in0.0 mm 0.00 in/hr0.0 mm/hr 0.00 in0.0 mm
12:23 AM 53.8°F12.1°C 53.5°F11.9°C 99% 3.0 mph N4.8 kmh N 4.5 mph7.2 kmh 29.36 in994.2 mb 0.00 in0.0 mm 0.00 in/hr0.0 mm/hr 0.00 in0.0 mm
12:22 AM 53.8°F12.1°C 53.5°F11.9°C 99% 2.9 mph N4.7 kmh N 4.5 mph7.2 kmh 29.37 in994.6 mb 0.00 in0.0 mm 0.00 in/hr0.0 mm/hr 0.00 in0.0 mm
12:21 AM 53.6°F12.0°C 53.3°F11.8°C 99% 2.8 mph N4.5 kmh N 4.5 mph7.2 kmh 29.36 in994.2 mb 0.00 in0.0 mm 0.00 in/hr0.0 mm/hr 0.00 in0.0 mm
12:20 AM 53.6°F12.0°C 53.3°F11.8°C 99% 2.8 mph N4.5 kmh N 4.5 mph7.2 kmh 29.37 in994.6 mb 0.00 in0.0 mm 0.00 in/hr0.0 mm/hr 0.00 in0.0 mm
12:19 AM 53.6°F12.0°C 53.3°F11.8°C 99% 2.6 mph N4.2 kmh N 4.5 mph7.2 kmh 29.36 in994.2 mb 0.00 in0.0 mm 0.00 in/hr0.0 mm/hr 0.00 in0.0 mm
12:18 AM 53.4°F11.9°C 53.2°F11.8°C 99% 2.5 mph N4.0 kmh N 4.5 mph7.2 kmh 29.37 in994.6 mb 0.00 in0.0 mm 0.00 in/hr0.0 mm/hr 0.00 in0.0 mm
12:17 AM 53.6°F12.0°C 53.3°F11.8°C 99% 2.5 mph N4.0 kmh N 4.5 mph7.2 kmh 29.36 in994.2 mb 0.00 in0.0 mm 0.00 in/hr0.0 mm/hr 0.00 in0.0 mm
12:16 AM 53.4°F11.9°C 53.2°F11.8°C 99% 2.4 mph N3.9 kmh N 4.5 mph7.2 kmh 29.36 in994.2 mb 0.00 in0.0 mm 0.00 in/hr0.0 mm/hr 0.00 in0.0 mm
12:15 AM 53.4°F11.9°C 53.2°F11.8°C 99% 2.6 mph N4.2 kmh N 5.4 mph8.7 kmh 29.36 in994.2 mb 0.00 in0.0 mm 0.00 in/hr0.0 mm/hr 0.00 in0.0 mm
12:14 AM 53.2°F11.8°C 53.0°F11.7°C 99% 2.5 mph N4.0 kmh N 5.4 mph8.7 kmh 29.36 in994.2 mb 0.00 in0.0 mm 0.00 in/hr0.0 mm/hr 0.00 in0.0 mm
12:13 AM 53.4°F11.9°C 53.2°F11.8°C 99% 2.7 mph N4.3 kmh N 5.4 mph8.7 kmh 29.37 in994.6 mb 0.00 in0.0 mm 0.00 in/hr0.0 mm/hr 0.00 in0.0 mm
12:12 AM 53.6°F12.0°C 53.3°F11.8°C 99% 2.7 mph N4.3 kmh N 5.4 mph8.7 kmh 29.37 in994.6 mb 0.00 in0.0 mm 0.00 in/hr0.0 mm/hr 0.00 in0.0 mm
12:11 AM 53.4°F11.9°C 53.2°F11.8°C 99% 2.6 mph N4.2 kmh N 5.4 mph8.7 kmh 29.37 in994.6 mb 0.00 in0.0 mm 0.00 in/hr0.0 mm/hr 0.00 in0.0 mm
12:10 AM 53.4°F11.9°C 53.2°F11.8°C 99% 2.4 mph N3.9 kmh N 5.4 mph8.7 kmh 29.37 in994.6 mb 0.00 in0.0 mm 0.00 in/hr0.0 mm/hr 0.00 in0.0 mm
12:09 AM 53.4°F11.9°C 53.2°F11.8°C 99% 2.2 mph N3.5 kmh N 5.4 mph8.7 kmh 29.37 in994.6 mb 0.00 in0.0 mm 0.00 in/hr0.0 mm/hr 0.00 in0.0 mm
12:08 AM 53.2°F11.8°C 53.0°F11.7°C 99% 1.9 mph N3.1 kmh N 5.4 mph8.7 kmh 29.36 in994.2 mb 0.00 in0.0 mm 0.00 in/hr0.0 mm/hr 0.00 in0.0 mm
12:07 AM 53.1°F11.7°C 52.8°F11.6°C 99% 1.5 mph NNE2.4 kmh NNE 5.4 mph8.7 kmh 29.37 in994.6 mb 0.00 in0.0 mm 0.00 in/hr0.0 mm/hr 0.00 in0.0 mm
12:06 AM 53.2°F11.8°C 53.0°F11.7°C 99% 1.3 mph N2.1 kmh N 5.4 mph8.7 kmh 29.37 in994.6 mb 0.00 in0.0 mm 0.00 in/hr0.0 mm/hr 0.00 in0.0 mm
12:05 AM 53.1°F11.7°C 52.8°F11.6°C 99% 1.1 mph N1.8 kmh N 5.4 mph8.7 kmh 29.37 in994.6 mb 0.00 in0.0 mm 0.00 in/hr0.0 mm/hr 0.00 in0.0 mm
12:04 AM 52.9°F11.6°C 52.6°F11.4°C 99% 0.7 mph N1.1 kmh N 3.1 mph5.0 kmh 29.37 in994.6 mb 0.00 in0.0 mm 0.00 in/hr0.0 mm/hr 0.00 in0.0 mm
12:03 AM 52.9°F11.6°C 52.6°F11.4°C 99% 0.6 mph N1.0 kmh N 3.1 mph5.0 kmh 29.37 in994.6 mb 0.00 in0.0 mm 0.00 in/hr0.0 mm/hr 0.00 in0.0 mm
12:02 AM 53.1°F11.7°C 52.8°F11.6°C 99% 0.8 mph NNE1.3 kmh NNE 3.1 mph5.0 kmh 29.37 in994.6 mb 0.00 in0.0 mm 0.00 in/hr0.0 mm/hr 0.00 in0.0 mm
12:01 AM 52.9°F11.6°C 52.6°F11.4°C 99% 1.0 mph NNE1.6 kmh NNE 3.1 mph5.0 kmh 29.37 in994.6 mb 0.00 in0.0 mm 0.00 in/hr0.0 mm/hr 0.00 in0.0 mm
12:00 AM 52.9°F11.6°C 52.6°F11.4°C 99% 1.2 mph NE1.9 kmh NE 3.1 mph5.0 kmh 29.36 in994.2 mb 0.00 in0.0 mm 0.00 in/hr0.0 mm/hr 0.00 in0.0 mm